createdAt,value
2022-09-20T00:00:51.976Z,10.20
2022-09-20T00:03:19.607Z,10.20
2022-09-20T00:05:48.111Z,10.20
2022-09-20T00:08:17.519Z,10.20
2022-09-20T00:10:45.729Z,10.20
2022-09-20T00:13:14.634Z,10.20
2022-09-20T00:15:43.294Z,10.20
2022-09-20T00:18:11.402Z,10.10
2022-09-20T00:20:45.075Z,10.30
2022-09-20T00:23:12.662Z,10.20
2022-09-20T00:25:41.952Z,10.20
2022-09-20T00:28:10.515Z,10.10
2022-09-20T00:30:38.386Z,10.20
2022-09-20T00:33:05.934Z,10.10
2022-09-20T00:35:33.110Z,10.20
2022-09-20T00:38:00.888Z,10.10
2022-09-20T00:40:28.968Z,10.10
2022-09-20T00:42:57.937Z,10.10
2022-09-20T00:45:26.310Z,10.10
2022-09-20T00:47:55.614Z,10.10
2022-09-20T00:50:27.027Z,10.20
2022-09-20T00:52:58.306Z,10.20
2022-09-20T00:55:26.175Z,10.20
2022-09-20T00:57:54.759Z,10.10
2022-09-20T01:00:24.055Z,10.10
2022-09-20T01:02:56.087Z,10.10
2022-09-20T01:05:23.995Z,10.00
2022-09-20T01:07:52.380Z,10.00
2022-09-20T01:10:19.973Z,10.00
2022-09-20T01:12:48.241Z,9.90
2022-09-20T01:15:16.527Z,10.00
2022-09-20T01:17:47.614Z,9.80
2022-09-20T01:20:18.454Z,9.90
2022-09-20T01:22:53.881Z,9.90
2022-09-20T01:25:30.630Z,9.90
2022-09-20T01:27:59.565Z,9.90
2022-09-20T01:30:29.960Z,9.90
2022-09-20T01:33:03.408Z,9.80
2022-09-20T01:35:33.567Z,9.80
2022-09-20T01:38:07.701Z,9.80
2022-09-20T01:40:40.291Z,9.80
2022-09-20T01:43:15.059Z,9.80
2022-09-20T01:45:45.667Z,9.80
2022-09-20T01:48:19.381Z,9.80
2022-09-20T01:50:53.860Z,9.80
2022-09-20T01:53:34.278Z,9.90
2022-09-20T01:56:13.962Z,9.90
2022-09-20T01:59:22.068Z,10.00
2022-09-20T02:02:06.414Z,10.00
2022-09-20T02:04:52.632Z,10.00
2022-09-20T02:07:26.697Z,10.10
2022-09-20T02:10:12.625Z,10.10
2022-09-20T02:12:46.901Z,10.10
2022-09-20T02:15:24.533Z,10.10
2022-09-20T02:17:56.132Z,10.10
2022-09-20T02:20:32.855Z,10.10
2022-09-20T02:23:15.616Z,10.20
2022-09-20T02:25:58.335Z,10.20
2022-09-20T02:28:31.834Z,10.20
2022-09-20T02:31:08.101Z,10.20
2022-09-20T02:33:41.841Z,10.20
2022-09-20T02:36:14.814Z,10.20
2022-09-20T02:38:52.823Z,10.20
2022-09-20T02:41:38.321Z,10.30
2022-09-20T02:44:09.378Z,10.30
2022-09-20T02:46:42.667Z,10.30
2022-09-20T02:49:13.142Z,10.30
2022-09-20T02:51:41.720Z,10.30
2022-09-20T02:54:16.550Z,10.30
2022-09-20T02:56:46.683Z,10.30
2022-09-20T02:59:19.459Z,10.40
2022-09-20T03:01:50.097Z,10.30
2022-09-20T03:04:24.253Z,10.40
2022-09-20T03:06:55.074Z,10.40
2022-09-20T03:09:27.076Z,10.40
2022-09-20T03:12:00.639Z,10.30
2022-09-20T03:14:30.634Z,10.40
2022-09-20T03:17:03.793Z,10.40
2022-09-20T03:19:37.314Z,10.40
2022-09-20T03:22:09.869Z,10.40
2022-09-20T03:24:42.785Z,10.30
2022-09-20T03:27:16.441Z,10.40
2022-09-20T03:29:54.030Z,10.40
2022-09-20T03:32:28.299Z,10.40
2022-09-20T03:35:01.718Z,10.40
2022-09-20T03:37:43.930Z,10.30
2022-09-20T03:40:34.728Z,10.40
2022-09-20T03:43:05.030Z,10.40
2022-09-20T03:45:43.514Z,10.50
2022-09-20T03:48:29.644Z,10.50
2022-09-20T03:51:05.279Z,10.40
2022-09-20T03:53:53.611Z,10.40
2022-09-20T03:56:36.183Z,10.40
2022-09-20T03:59:14.445Z,10.40
2022-09-20T04:01:51.294Z,10.40
2022-09-20T04:04:24.818Z,10.40
2022-09-20T04:07:05.761Z,10.40
2022-09-20T04:09:44.815Z,10.40
2022-09-20T04:12:17.415Z,10.40
2022-09-20T04:14:48.701Z,10.40
2022-09-20T04:17:24.419Z,10.40
2022-09-20T04:19:57.575Z,10.40
2022-09-20T04:22:26.563Z,10.40
2022-09-20T04:24:56.479Z,10.40
2022-09-20T04:27:26.434Z,10.40
2022-09-20T04:29:57.454Z,10.40
2022-09-20T04:32:26.367Z,10.40
2022-09-20T04:35:16.780Z,10.40
2022-09-20T04:37:45.313Z,10.40
2022-09-20T04:40:21.083Z,10.40
2022-09-20T04:43:01.614Z,10.40
2022-09-20T04:45:40.679Z,10.40
2022-09-20T04:48:25.126Z,10.40
2022-09-20T04:51:04.482Z,10.40
2022-09-20T04:53:45.561Z,10.30
2022-09-20T04:56:20.630Z,10.40
2022-09-20T04:59:04.628Z,10.40
2022-09-20T05:01:55.865Z,10.40
2022-09-20T05:04:58.338Z,10.40
2022-09-20T05:07:49.342Z,10.40
2022-09-20T05:10:24.731Z,10.40
2022-09-20T05:12:57.963Z,10.40
2022-09-20T05:15:35.287Z,10.40
2022-09-20T05:18:14.552Z,10.40
2022-09-20T05:20:56.727Z,10.40
2022-09-20T05:23:34.586Z,10.40
2022-09-20T05:26:10.388Z,10.50
2022-09-20T05:28:42.038Z,10.40
2022-09-20T05:31:12.721Z,10.40
2022-09-20T05:33:44.941Z,10.40
2022-09-20T05:36:18.249Z,10.40
2022-09-20T05:38:48.995Z,10.50
2022-09-20T05:41:20.650Z,10.50
2022-09-20T05:43:51.837Z,10.40
2022-09-20T05:46:23.950Z,10.40
2022-09-20T05:48:56.097Z,10.50
2022-09-20T05:51:35.291Z,10.50
2022-09-20T05:54:19.557Z,10.50
2022-09-20T05:56:50.811Z,10.60
2022-09-20T05:59:36.343Z,10.60
2022-09-20T06:02:11.269Z,10.60
2022-09-20T06:04:43.817Z,10.60
2022-09-20T06:07:18.825Z,10.60
2022-09-20T06:09:56.519Z,10.60
2022-09-20T06:12:37.751Z,10.60
2022-09-20T06:15:13.145Z,10.70
2022-09-20T06:17:44.592Z,10.70
2022-09-20T06:20:17.014Z,10.60
2022-09-20T06:22:45.984Z,10.70
2022-09-20T06:25:19.491Z,10.60
2022-09-20T06:27:50.244Z,10.60
2022-09-20T06:30:19.125Z,10.70
2022-09-20T06:32:56.560Z,10.80
2022-09-20T06:35:25.082Z,10.80
2022-09-20T06:38:13.095Z,10.80
2022-09-20T06:41:03.922Z,10.80
2022-09-20T06:43:31.899Z,10.80
2022-09-20T06:45:59.779Z,10.80
2022-09-20T06:48:31.499Z,10.90
2022-09-20T06:50:59.118Z,10.90
2022-09-20T06:53:28.139Z,11.00
2022-09-20T06:55:57.657Z,11.00
2022-09-20T06:58:26.565Z,10.90
2022-09-20T07:00:54.725Z,11.00
2022-09-20T07:03:22.389Z,11.10
2022-09-20T07:05:50.078Z,11.00
2022-09-20T07:08:17.926Z,11.00
2022-09-20T07:10:45.498Z,11.10
2022-09-20T07:13:14.700Z,11.10
2022-09-20T07:15:42.470Z,11.10
2022-09-20T07:18:10.035Z,11.10
2022-09-20T07:20:37.923Z,11.10
2022-09-20T07:23:05.486Z,11.00
2022-09-20T07:25:33.313Z,11.00
2022-09-20T07:28:00.910Z,11.10
2022-09-20T07:30:29.848Z,11.00
2022-09-20T07:32:57.423Z,11.10
2022-09-20T07:35:25.134Z,11.10
2022-09-20T07:37:56.838Z,11.10
2022-09-20T07:40:25.680Z,11.20
2022-09-20T07:42:56.234Z,11.20
2022-09-20T07:45:24.054Z,11.30
2022-09-20T07:47:53.337Z,11.40
2022-09-20T07:50:21.107Z,11.40
2022-09-20T07:52:48.809Z,11.40
2022-09-20T07:55:16.391Z,11.50
2022-09-20T07:57:44.029Z,11.50
2022-09-20T08:00:12.574Z,11.50
2022-09-20T08:02:40.236Z,11.50
2022-09-20T08:05:09.653Z,11.50
2022-09-20T08:07:37.245Z,11.50
2022-09-20T08:10:04.973Z,11.50
2022-09-20T08:15:20.419Z,11.60
2022-09-20T08:17:48.476Z,11.60
2022-09-20T08:20:18.239Z,11.60
2022-09-20T08:23:00.902Z,11.50
2022-09-20T08:25:33.843Z,11.60
2022-09-20T08:28:01.469Z,11.60
2022-09-20T08:30:30.083Z,11.70
2022-09-20T08:32:58.201Z,11.70
2022-09-20T08:35:29.649Z,11.70
2022-09-20T08:37:57.550Z,11.80
2022-09-20T08:40:45.144Z,11.80
2022-09-20T08:43:13.011Z,12.00
2022-09-20T08:45:40.710Z,12.00
2022-09-20T08:48:14.212Z,12.00
2022-09-20T08:50:43.763Z,12.10
2022-09-20T08:53:13.307Z,12.10
2022-09-20T08:55:43.311Z,12.20
2022-09-20T08:58:11.809Z,12.20
2022-09-20T09:00:40.353Z,12.20
2022-09-20T09:03:12.120Z,12.20
2022-09-20T09:05:41.567Z,12.20
2022-09-20T09:08:16.143Z,12.20
2022-09-20T09:10:45.676Z,12.20
2022-09-20T09:13:19.523Z,12.30
2022-09-20T09:15:51.334Z,12.30
2022-09-20T09:18:19.087Z,12.40
2022-09-20T09:20:46.731Z,12.40
2022-09-20T09:23:25.359Z,12.40
2022-09-20T09:25:53.845Z,12.40
2022-09-20T09:28:23.426Z,12.50
2022-09-20T09:30:51.069Z,12.50
2022-09-20T09:33:22.594Z,12.50
2022-09-20T09:35:54.708Z,12.60
2022-09-20T09:38:24.393Z,12.60
2022-09-20T09:40:53.377Z,12.50
2022-09-20T09:43:23.414Z,12.50
2022-09-20T09:45:51.303Z,12.50
2022-09-20T09:48:20.181Z,12.50
2022-09-20T09:50:48.298Z,12.50
2022-09-20T09:53:16.871Z,12.40
2022-09-20T09:55:53.523Z,12.50
2022-09-20T09:58:28.477Z,12.40
2022-09-20T10:00:56.511Z,12.40
2022-09-20T10:03:35.235Z,12.50
2022-09-20T10:06:08.002Z,12.50
2022-09-20T10:08:40.864Z,12.50
2022-09-20T10:11:15.051Z,12.60
2022-09-20T10:13:49.219Z,12.70
2022-09-20T10:16:22.323Z,12.80
2022-09-20T10:18:53.003Z,12.80
2022-09-20T10:21:26.242Z,12.80
2022-09-20T10:24:04.010Z,12.80
2022-09-20T10:26:43.862Z,12.80
2022-09-20T10:29:18.034Z,12.90
2022-09-20T10:31:57.194Z,12.80
2022-09-20T10:34:45.867Z,12.80
2022-09-20T10:37:16.003Z,12.80
2022-09-20T10:39:45.077Z,12.90
2022-09-20T10:42:40.606Z,12.80
2022-09-20T10:45:24.483Z,12.90
2022-09-20T10:48:04.274Z,12.90
2022-09-20T10:50:36.244Z,13.10
2022-09-20T10:53:12.516Z,13.10
2022-09-20T10:55:46.432Z,13.10
2022-09-20T10:58:31.982Z,13.10
2022-09-20T11:01:02.285Z,13.10
2022-09-20T11:03:37.492Z,13.20
2022-09-20T11:06:11.790Z,13.30
2022-09-20T11:08:40.839Z,13.50
2022-09-20T11:11:10.351Z,13.50
2022-09-20T11:13:43.057Z,13.60
2022-09-20T11:16:14.141Z,13.70
2022-09-20T11:18:44.985Z,13.80
2022-09-20T11:21:17.773Z,14.00
2022-09-20T11:23:50.956Z,14.20
2022-09-20T11:26:22.186Z,14.20
2022-09-20T11:28:53.998Z,14.30
2022-09-20T11:31:26.242Z,14.30
2022-09-20T11:33:57.761Z,14.30
2022-09-20T11:36:28.278Z,14.40
2022-09-20T11:38:58.505Z,14.50
2022-09-20T11:41:27.765Z,14.60
2022-09-20T11:43:58.363Z,14.70
2022-09-20T11:46:27.582Z,14.70
2022-09-20T11:48:57.677Z,14.80
2022-09-20T11:51:31.999Z,14.70
2022-09-20T11:54:11.185Z,14.90
2022-09-20T11:56:41.792Z,14.90
2022-09-20T11:59:28.226Z,14.90
2022-09-20T12:01:56.945Z,14.90
2022-09-20T12:04:34.547Z,14.90
2022-09-20T12:07:08.828Z,14.90
2022-09-20T12:09:40.057Z,15.00
2022-09-20T12:12:15.369Z,14.90
2022-09-20T12:14:53.896Z,15.00
2022-09-20T12:17:40.175Z,15.10
2022-09-20T12:20:22.651Z,15.20
2022-09-20T12:22:50.359Z,15.30
2022-09-20T12:25:37.916Z,15.40
2022-09-20T12:28:05.766Z,15.40
2022-09-20T12:30:34.741Z,15.40
2022-09-20T12:33:04.071Z,15.40
2022-09-20T12:35:55.828Z,15.50
2022-09-20T12:38:28.088Z,15.60
2022-09-20T12:40:59.562Z,15.60
2022-09-20T12:43:28.696Z,15.60
2022-09-20T12:46:02.959Z,15.60
2022-09-20T12:48:35.619Z,15.70
2022-09-20T12:51:22.424Z,15.70
2022-09-20T12:54:00.153Z,15.70
2022-09-20T12:56:28.331Z,15.70
2022-09-20T12:58:57.030Z,15.70
2022-09-20T13:01:33.891Z,15.80
2022-09-20T13:04:20.175Z,15.90
2022-09-20T13:06:48.972Z,15.90
2022-09-20T13:09:16.990Z,15.90
2022-09-20T13:11:46.465Z,15.90
2022-09-20T13:14:15.552Z,16.00
2022-09-20T13:16:50.918Z,16.00
2022-09-20T13:19:20.136Z,16.10
2022-09-20T13:21:53.191Z,16.00
2022-09-20T13:24:21.535Z,16.00
2022-09-20T13:26:50.128Z,16.10
2022-09-20T13:29:23.847Z,16.20
2022-09-20T13:31:52.797Z,16.10
2022-09-20T13:34:21.930Z,16.30
2022-09-20T13:36:55.968Z,16.20
2022-09-20T13:39:25.879Z,16.30
2022-09-20T13:41:53.578Z,16.40
2022-09-20T13:44:21.149Z,16.40
2022-09-20T13:46:48.775Z,16.30
2022-09-20T13:49:20.935Z,16.40
2022-09-20T13:51:49.042Z,16.50
2022-09-20T13:54:22.107Z,16.40
2022-09-20T13:56:50.307Z,16.50
2022-09-20T13:59:19.542Z,16.40
2022-09-20T14:01:50.413Z,16.20
2022-09-20T14:04:21.345Z,16.40
2022-09-20T14:06:49.984Z,16.30
2022-09-20T14:09:21.262Z,16.20
2022-09-20T14:11:49.506Z,16.20
2022-09-20T14:14:21.391Z,16.10
2022-09-20T14:16:50.658Z,16.10
2022-09-20T14:19:21.045Z,16.10
2022-09-20T14:21:48.958Z,16.10
2022-09-20T14:24:27.536Z,16.00
2022-09-20T14:27:02.987Z,16.00
2022-09-20T14:29:31.517Z,16.10
2022-09-20T14:32:00.189Z,16.10
2022-09-20T14:34:29.464Z,15.90
2022-09-20T14:37:04.111Z,15.90
2022-09-20T14:39:32.341Z,15.80
2022-09-20T14:41:59.969Z,15.80
2022-09-20T14:44:31.620Z,15.70
2022-09-20T14:46:59.666Z,15.70
2022-09-20T14:49:34.246Z,15.70
2022-09-20T14:52:17.588Z,15.60
2022-09-20T14:54:58.663Z,15.50
2022-09-20T14:57:27.346Z,15.50
2022-09-20T14:59:57.043Z,15.40
2022-09-20T15:02:25.467Z,15.50
2022-09-20T15:04:55.533Z,15.50
2022-09-20T15:07:23.277Z,15.40
2022-09-20T15:09:51.173Z,15.40
2022-09-20T15:12:19.470Z,15.30
2022-09-20T15:14:47.485Z,15.30
2022-09-20T15:17:16.732Z,15.30
2022-09-20T15:19:44.334Z,15.30
2022-09-20T15:22:14.055Z,15.20
2022-09-20T15:24:42.965Z,15.10
2022-09-20T15:27:10.752Z,15.20
2022-09-20T15:29:38.309Z,15.10
2022-09-20T15:32:06.302Z,15.20
2022-09-20T15:34:34.005Z,15.20
2022-09-20T15:37:01.799Z,15.10
2022-09-20T15:39:30.706Z,15.00
2022-09-20T15:41:58.551Z,15.00
2022-09-20T15:44:26.142Z,15.00
2022-09-20T15:46:54.415Z,15.00
2022-09-20T15:49:22.613Z,15.10
2022-09-20T15:51:50.479Z,15.10
2022-09-20T15:54:18.059Z,15.10
2022-09-20T15:56:47.190Z,15.20
2022-09-20T15:59:16.345Z,15.20
2022-09-20T16:01:44.879Z,15.30
2022-09-20T16:04:13.344Z,15.30
2022-09-20T16:06:42.083Z,15.40
2022-09-20T16:09:10.066Z,15.40
2022-09-20T16:11:38.693Z,15.40
2022-09-20T16:14:07.924Z,15.50
2022-09-20T16:16:40.036Z,15.60
2022-09-20T16:19:20.909Z,15.50
2022-09-20T16:21:52.474Z,15.50
2022-09-20T16:24:25.709Z,15.40
2022-09-20T16:26:53.327Z,15.40
2022-09-20T16:29:23.419Z,15.30
2022-09-20T16:31:51.669Z,15.20
2022-09-20T16:34:20.492Z,15.20
2022-09-20T16:36:48.949Z,15.10
2022-09-20T16:39:17.065Z,15.10
2022-09-20T16:41:46.926Z,15.10
2022-09-20T16:44:14.573Z,15.10
2022-09-20T16:46:44.512Z,14.90
2022-09-20T16:49:13.368Z,14.90
2022-09-20T16:51:41.547Z,14.70
2022-09-20T16:54:11.645Z,14.60
2022-09-20T16:56:41.131Z,14.60
2022-09-20T16:59:09.186Z,14.50
2022-09-20T17:01:37.665Z,14.50
2022-09-20T17:04:07.544Z,14.40
2022-09-20T17:06:36.142Z,14.40
2022-09-20T17:09:04.671Z,14.30
2022-09-20T17:11:33.331Z,14.20
2022-09-20T17:14:01.189Z,14.20
2022-09-20T17:16:29.983Z,14.10
2022-09-20T17:18:58.328Z,14.10
2022-09-20T17:21:28.031Z,14.10
2022-09-20T17:23:57.442Z,14.10
2022-09-20T17:26:25.823Z,13.90
2022-09-20T17:28:55.664Z,13.80
2022-09-20T17:31:25.263Z,13.80
2022-09-20T17:33:53.098Z,13.70
2022-09-20T17:36:21.364Z,13.50
2022-09-20T17:38:53.857Z,13.40
2022-09-20T17:41:21.765Z,13.30
2022-09-20T17:43:53.273Z,13.20
2022-09-20T17:46:25.583Z,13.00
2022-09-20T17:48:55.580Z,12.90
2022-09-20T17:51:23.993Z,12.90
2022-09-20T17:53:53.306Z,12.80
2022-09-20T17:56:23.231Z,12.70
2022-09-20T17:58:51.313Z,12.50
2022-09-20T18:01:20.247Z,12.50
2022-09-20T18:03:48.935Z,12.30
2022-09-20T18:06:17.886Z,12.20
2022-09-20T18:08:49.619Z,12.30
2022-09-20T18:11:19.307Z,12.30
2022-09-20T18:13:46.878Z,12.10
2022-09-20T18:16:15.481Z,12.00
2022-09-20T18:18:45.140Z,12.00
2022-09-20T18:21:14.351Z,11.90
2022-09-20T18:23:42.235Z,11.80
2022-09-20T18:26:25.850Z,11.70
2022-09-20T18:28:56.693Z,11.70
2022-09-20T18:31:25.962Z,11.70
2022-09-20T18:33:54.322Z,11.60
2022-09-20T18:36:24.138Z,11.70
2022-09-20T18:38:54.724Z,11.50
2022-09-20T18:41:25.449Z,11.40
2022-09-20T18:43:55.313Z,11.40
2022-09-20T18:46:24.786Z,11.30
2022-09-20T18:48:52.687Z,11.20
2022-09-20T18:51:20.330Z,11.20
2022-09-20T18:53:48.060Z,11.10
2022-09-20T18:56:23.503Z,11.10
2022-09-20T18:58:52.616Z,11.10
2022-09-20T19:01:35.397Z,11.10
2022-09-20T19:04:10.983Z,11.00
2022-09-20T19:06:42.119Z,11.00
2022-09-20T19:09:15.007Z,11.00
2022-09-20T19:11:44.862Z,10.70
2022-09-20T19:14:15.773Z,10.70
2022-09-20T19:16:43.930Z,10.60
2022-09-20T19:19:29.689Z,10.60
2022-09-20T19:22:08.313Z,10.50
2022-09-20T19:24:51.268Z,10.50
2022-09-20T19:27:19.166Z,10.40
2022-09-20T19:29:47.166Z,10.30
2022-09-20T19:32:16.817Z,10.20
2022-09-20T19:34:46.792Z,10.20
2022-09-20T19:37:21.359Z,10.20
2022-09-20T19:39:57.487Z,10.20
2022-09-20T19:42:32.018Z,10.10
2022-09-20T19:45:04.271Z,10.10
2022-09-20T19:47:37.318Z,10.10
2022-09-20T19:50:11.076Z,10.00
2022-09-20T19:52:39.374Z,9.90
2022-09-20T19:55:07.468Z,9.90
2022-09-20T19:57:37.263Z,9.80
2022-09-20T20:00:09.304Z,9.90
2022-09-20T20:02:37.358Z,9.90
2022-09-20T20:05:07.258Z,10.10
2022-09-20T20:07:37.634Z,9.90
2022-09-20T20:10:11.708Z,9.70
2022-09-20T20:12:44.050Z,9.60
2022-09-20T20:15:21.336Z,9.80
2022-09-20T20:17:52.580Z,9.70
2022-09-20T20:20:26.534Z,9.70
2022-09-20T20:23:09.031Z,9.80
2022-09-20T20:25:41.369Z,9.80
2022-09-20T20:28:09.884Z,9.80
2022-09-20T20:30:37.511Z,9.80
2022-09-20T20:33:05.881Z,9.70
2022-09-20T20:35:35.057Z,9.60
2022-09-20T20:38:05.849Z,9.70
2022-09-20T20:40:33.449Z,9.70
2022-09-20T20:43:02.549Z,9.70
2022-09-20T20:45:30.327Z,9.60
2022-09-20T20:47:58.580Z,9.60
2022-09-20T20:50:26.952Z,9.60
2022-09-20T20:52:56.314Z,9.40
2022-09-20T20:55:24.020Z,9.50
2022-09-20T20:57:58.003Z,9.40
2022-09-20T21:00:25.665Z,9.40
2022-09-20T21:02:57.018Z,9.40
2022-09-20T21:05:25.001Z,9.40
2022-09-20T21:07:52.937Z,9.30
2022-09-20T21:10:22.203Z,9.30
2022-09-20T21:12:51.669Z,9.40
2022-09-20T21:15:19.254Z,9.40
2022-09-20T21:17:51.115Z,9.30
2022-09-20T21:20:18.787Z,9.20
2022-09-20T21:22:46.369Z,9.10
2022-09-20T21:25:13.981Z,9.00
2022-09-20T21:27:42.878Z,9.00
2022-09-20T21:30:11.810Z,8.90
2022-09-20T21:32:39.376Z,8.90
2022-09-20T21:35:07.277Z,8.90
2022-09-20T21:37:34.855Z,8.80
2022-09-20T21:40:02.862Z,8.70
2022-09-20T21:42:30.481Z,8.70
2022-09-20T21:44:59.495Z,8.80
2022-09-20T21:47:27.077Z,8.80
2022-09-20T21:49:54.958Z,8.90
2022-09-20T21:52:22.542Z,8.90
2022-09-20T21:54:51.071Z,8.80
2022-09-20T21:57:18.662Z,8.70
2022-09-20T21:59:46.328Z,8.80
2022-09-20T22:02:17.006Z,8.80
2022-09-20T22:04:44.616Z,8.60
2022-09-20T22:07:12.193Z,8.50
2022-09-20T22:09:40.039Z,8.40
2022-09-20T22:12:07.647Z,8.40
2022-09-20T22:14:39.334Z,8.40
2022-09-20T22:17:06.891Z,8.50
2022-09-20T22:19:36.201Z,8.60
2022-09-20T22:22:03.778Z,8.50
2022-09-20T22:24:31.837Z,8.40
2022-09-20T22:26:59.389Z,8.30
2022-09-20T22:29:26.996Z,8.40
2022-09-20T22:31:54.973Z,8.40
2022-09-20T22:34:23.574Z,8.40
2022-09-20T22:36:53.782Z,8.30
2022-09-20T22:39:21.718Z,8.40
2022-09-20T22:41:49.315Z,8.40
2022-09-20T22:44:16.966Z,8.50
2022-09-20T22:46:44.535Z,8.30
2022-09-20T22:49:12.174Z,8.30
2022-09-20T22:51:39.947Z,8.30
2022-09-20T22:54:09.574Z,8.20
2022-09-20T22:56:37.807Z,8.10
2022-09-20T22:59:06.067Z,8.20
2022-09-20T23:01:34.792Z,8.30
2022-09-20T23:04:04.853Z,8.00
2022-09-20T23:06:34.130Z,7.90
2022-09-20T23:09:03.019Z,8.00
2022-09-20T23:11:32.686Z,8.00
2022-09-20T23:14:03.011Z,8.00
2022-09-20T23:16:32.929Z,8.10
2022-09-20T23:19:01.989Z,8.20
2022-09-20T23:21:30.416Z,8.10
2022-09-20T23:23:59.244Z,8.00
2022-09-20T23:26:27.835Z,8.00
2022-09-20T23:28:58.119Z,8.20
2022-09-20T23:31:26.801Z,8.10
2022-09-20T23:33:55.892Z,8.00
2022-09-20T23:36:27.434Z,8.00
2022-09-20T23:38:57.022Z,8.10
2022-09-20T23:41:26.020Z,8.10
2022-09-20T23:43:54.553Z,8.00
2022-09-20T23:46:25.908Z,7.90
2022-09-20T23:48:55.342Z,7.90
2022-09-20T23:51:24.949Z,7.90
2022-09-20T23:53:53.679Z,7.80
2022-09-20T23:56:22.802Z,7.60
2022-09-20T23:58:51.157Z,7.60
